KMPV/MPV METAR and TAF weather

Enter ICAO airport designator
Station Type Date Time Source
KMPV METAR 2019/12/06 23:51 UTC NOAA

KMPV 062351Z AUTO 33003KT 1 3/4SM -SN BR OVC019 M04/M06 A2997 RMK AO2 SLP168 P0002 60005 T10441056 11033 21044 51012


Station Type Date Time Source
KMPV Decoded METAR 2019/12/06 23:51 UTC NOAA

KNAPP STATE AIRPORT, VT, United States (KMPV) 44-12N 072-34W 343M
Dec 06, 2019 - 06:51 PM EST / 2019.12.06 2351 UTC
Wind: from the NNW (330 degrees) at 3 MPH (3 KT):0
Visibility: 1 3/4 mile(s):0
Sky conditions: overcast
Weather: light snow; mist
Precipitation last hour: 0.02 inches
Temperature: 24.1 F (-4.4 C)
Dew Point: 21.9 F (-5.6 C)
Relative Humidity: 91%
Pressure (altimeter): 29.97 in. Hg (1014 hPa)
Pressure tendency: 0.04 inches (1.2 hPa) higher than three hours ago
ob: KMPV 062351Z AUTO 33003KT 1 3/4SM -SN BR OVC019 M04/M06 A2997 RMK AO2 SLP168 P0002 60005 T10441056 11033 21044 51012
cycle: 0

Station Type Date Time Source
KMPV TAF 2019/12/06 20:03 UTC NOAA

TAF
AMD KMPV 062000Z 0620/0718 00000KT 1 1/2SM -SN BR OVC025
FM062300 33004KT 4SM -SN BR OVC015
FM070200 32005KT P6SM VCSH BKN025
FM070500 31005KT P6SM SCT025 BKN040
FM071400 30003KT P6SM BKN025

Example: see airport list